sensor_id;sensor_type;location;lat;lon;timestamp;pressure;altitude;pressure_sealevel;temperature;humidity
65553;BME280;52465;51.560;14.368;2023-02-02T00:00:12;99681.78;;;6.74;67.04
65553;BME280;52465;51.560;14.368;2023-02-02T00:02:38;99647.03;;;6.47;67.76
65553;BME280;52465;51.560;14.368;2023-02-02T00:05:04;99683.53;;;6.73;67.65
65553;BME280;52465;51.560;14.368;2023-02-02T00:07:29;99650.28;;;6.49;67.42
65553;BME280;52465;51.560;14.368;2023-02-02T00:09:55;99693.44;;;6.70;66.98
65553;BME280;52465;51.560;14.368;2023-02-02T00:12:20;99682.00;;;6.62;67.07
65553;BME280;52465;51.560;14.368;2023-02-02T00:14:45;99702.94;;;6.79;67.37
65553;BME280;52465;51.560;14.368;2023-02-02T00:17:11;99689.59;;;6.74;67.54
65553;BME280;52465;51.560;14.368;2023-02-02T00:19:36;99665.19;;;6.57;67.18
65553;BME280;52465;51.560;14.368;2023-02-02T00:22:02;99696.00;;;6.79;67.40
65553;BME280;52465;51.560;14.368;2023-02-02T00:24:27;99695.31;;;6.77;67.57
65553;BME280;52465;51.560;14.368;2023-02-02T00:26:58;99696.00;;;6.79;67.10
65553;BME280;52465;51.560;14.368;2023-02-02T00:29:27;99666.88;;;6.66;67.45
65553;BME280;52465;51.560;14.368;2023-02-02T00:31:56;99646.72;;;6.50;67.14
65553;BME280;52465;51.560;14.368;2023-02-02T00:34:24;99675.81;;;6.63;67.19
65553;BME280;52465;51.560;14.368;2023-02-02T00:36:51;99691.22;;;6.75;67.87
65553;BME280;52465;51.560;14.368;2023-02-02T00:39:20;99707.50;;;6.77;67.42
65553;BME280;52465;51.560;14.368;2023-02-02T00:41:46;99709.81;;;6.80;67.32
65553;BME280;52465;51.560;14.368;2023-02-02T00:44:12;99639.38;;;6.46;67.02
65553;BME280;52465;51.560;14.368;2023-02-02T00:46:56;99643.31;;;6.50;67.46
65553;BME280;52465;51.560;14.368;2023-02-02T00:49:21;99671.28;;;6.66;67.34
65553;BME280;52465;51.560;14.368;2023-02-02T00:51:47;99658.72;;;6.61;67.14
65553;BME280;52465;51.560;14.368;2023-02-02T00:54:13;99682.59;;;6.74;67.38
65553;BME280;52465;51.560;14.368;2023-02-02T00:56:39;99685.59;;;6.79;66.90
65553;BME280;52465;51.560;14.368;2023-02-02T00:59:04;99689.28;;;6.77;67.40
65553;BME280;52465;51.560;14.368;2023-02-02T01:01:31;99636.31;;;6.50;67.90
65553;BME280;52465;51.560;14.368;2023-02-02T01:03:56;99681.19;;;6.80;67.76
65553;BME280;52465;51.560;14.368;2023-02-02T01:06:23;99645.19;;;6.57;67.44
65553;BME280;52465;51.560;14.368;2023-02-02T01:08:48;99670.09;;;6.78;66.92
65553;BME280;52465;51.560;14.368;2023-02-02T01:11:14;99637.81;;;6.53;67.43
65553;BME280;52465;51.560;14.368;2023-02-02T01:13:40;99668.47;;;6.77;67.04
65553;BME280;52465;51.560;14.368;2023-02-02T01:16:09;99677.91;;;6.78;67.16
65553;BME280;52465;51.560;14.368;2023-02-02T01:18:35;99674.22;;;6.80;67.64
65553;BME280;52465;51.560;14.368;2023-02-02T01:21:09;99672.72;;;6.78;67.10
65553;BME280;52465;51.560;14.368;2023-02-02T01:23:35;99661.63;;;6.76;67.35
65553;BME280;52465;51.560;14.368;2023-02-02T01:26:03;99672.59;;;6.79;67.56
65553;BME280;52465;51.560;14.368;2023-02-02T01:28:29;99611.88;;;6.43;67.47
65553;BME280;52465;51.560;14.368;2023-02-02T01:30:56;99653.31;;;6.72;67.40
65553;BME280;52465;51.560;14.368;2023-02-02T01:33:23;99653.31;;;6.72;67.63
65553;BME280;52465;51.560;14.368;2023-02-02T01:35:52;99643.78;;;6.63;67.47
65553;BME280;52465;51.560;14.368;2023-02-02T01:38:21;99675.31;;;6.78;67.70
65553;BME280;52465;51.560;14.368;2023-02-02T01:40:53;99671.88;;;6.77;66.99
65553;BME280;52465;51.560;14.368;2023-02-02T01:45:46;99637.97;;;6.51;67.06
65553;BME280;52465;51.560;14.368;2023-02-02T01:48:12;99667.72;;;6.67;67.06
65553;BME280;52465;51.560;14.368;2023-02-02T01:50:40;99677.91;;;6.78;67.19
65553;BME280;52465;51.560;14.368;2023-02-02T01:53:06;99677.09;;;6.77;67.70
65553;BME280;52465;51.560;14.368;2023-02-02T01:55:34;99605.03;;;6.42;67.14
65553;BME280;52465;51.560;14.368;2023-02-02T01:58:07;99666.06;;;6.66;67.25
65553;BME280;52465;51.560;14.368;2023-02-02T02:00:35;99646.25;;;6.65;67.51
65553;BME280;52465;51.560;14.368;2023-02-02T02:03:09;99641.84;;;6.65;67.07
65553;BME280;52465;51.560;14.368;2023-02-02T02:05:42;99643.34;;;6.68;67.42
65553;BME280;52465;51.560;14.368;2023-02-02T02:08:15;99651.50;;;6.73;67.20
65553;BME280;52465;51.560;14.368;2023-02-02T02:10:47;99644.47;;;6.65;67.27
65553;BME280;52465;51.560;14.368;2023-02-02T02:13:13;99633.09;;;6.66;67.35
65553;BME280;52465;51.560;14.368;2023-02-02T02:15:46;99646.63;;;6.70;67.75
65553;BME280;52465;51.560;14.368;2023-02-02T02:18:49;99659.03;;;6.76;67.02
65553;BME280;52465;51.560;14.368;2023-02-02T02:21:44;99649.59;;;6.75;67.14
65553;BME280;52465;51.560;14.368;2023-02-02T02:25:00;99653.19;;;6.74;66.98
65553;BME280;52465;51.560;14.368;2023-02-02T02:33:24;99655.63;;;6.75;66.85
65553;BME280;52465;51.560;14.368;2023-02-02T02:36:26;99657.41;;;6.75;67.18
65553;BME280;52465;51.560;14.368;2023-02-02T02:39:05;99667.13;;;6.73;67.10
65553;BME280;52465;51.560;14.368;2023-02-02T02:41:40;99659.91;;;6.67;66.72
65553;BME280;52465;51.560;14.368;2023-02-02T02:44:18;99664.44;;;6.65;67.26
65553;BME280;52465;51.560;14.368;2023-02-02T02:46:44;99659.31;;;6.73;67.25
65553;BME280;52465;51.560;14.368;2023-02-02T02:49:11;99657.31;;;6.67;67.50
65553;BME280;52465;51.560;14.368;2023-02-02T02:51:49;99681.25;;;6.70;67.31
65553;BME280;52465;51.560;14.368;2023-02-02T02:54:22;99671.38;;;6.74;67.17
65553;BME280;52465;51.560;14.368;2023-02-02T02:59:32;99669.72;;;6.73;67.17
65553;BME280;52465;51.560;14.368;2023-02-02T03:04:54;99663.03;;;6.70;67.04
65553;BME280;52465;51.560;14.368;2023-02-02T03:07:37;99668.78;;;6.74;67.34
65553;BME280;52465;51.560;14.368;2023-02-02T03:10:10;99654.69;;;6.67;67.46
65553;BME280;52465;51.560;14.368;2023-02-02T03:12:47;99661.91;;;6.73;67.29
65553;BME280;52465;51.560;14.368;2023-02-02T03:15:14;99627.31;;;6.45;67.16
65553;BME280;52465;51.560;14.368;2023-02-02T03:17:41;99630.19;;;6.51;66.99
65553;BME280;52465;51.560;14.368;2023-02-02T03:20:08;99679.19;;;6.74;67.22
65553;BME280;52465;51.560;14.368;2023-02-02T03:22:34;99686.16;;;6.73;67.48
65553;BME280;52465;51.560;14.368;2023-02-02T03:25:00;99683.53;;;6.73;67.35
65553;BME280;52465;51.560;14.368;2023-02-02T03:27:28;99637.88;;;6.43;66.85
65553;BME280;52465;51.560;14.368;2023-02-02T03:29:54;99681.78;;;6.74;66.66
65553;BME280;52465;51.560;14.368;2023-02-02T03:32:20;99670.63;;;6.63;67.24
65553;BME280;52465;51.560;14.368;2023-02-02T03:34:46;99693.00;;;6.74;67.23
65553;BME280;52465;51.560;14.368;2023-02-02T03:37:11;99681.41;;;6.69;67.28
65553;BME280;52465;51.560;14.368;2023-02-02T03:39:36;99688.25;;;6.70;67.08
65553;BME280;52465;51.560;14.368;2023-02-02T03:42:02;99689.59;;;6.74;67.44
65553;BME280;52465;51.560;14.368;2023-02-02T03:44:27;99663.53;;;6.56;66.95
65553;BME280;52465;51.560;14.368;2023-02-02T03:46:55;99684.50;;;6.72;67.34
65553;BME280;52465;51.560;14.368;2023-02-02T03:49:25;99691.34;;;6.73;67.27
65553;BME280;52465;51.560;14.368;2023-02-02T03:51:51;99679.75;;;6.68;67.32
65553;BME280;52465;51.560;14.368;2023-02-02T03:54:16;99679.75;;;6.68;67.64
65553;BME280;52465;51.560;14.368;2023-02-02T03:56:42;99688.75;;;6.73;67.21
65553;BME280;52465;51.560;14.368;2023-02-02T03:59:07;99687.19;;;6.62;67.33
65553;BME280;52465;51.560;14.368;2023-02-02T04:01:33;99689.78;;;6.62;66.80
65553;BME280;52465;51.560;14.368;2023-02-02T04:03:58;99697.00;;;6.69;66.63
65553;BME280;52465;51.560;14.368;2023-02-02T04:06:24;99658.66;;;6.43;67.07
65553;BME280;52465;51.560;14.368;2023-02-02T04:08:50;99686.50;;;6.60;67.35
65553;BME280;52465;51.560;14.368;2023-02-02T04:11:17;99686.09;;;6.55;66.78
65553;BME280;52465;51.560;14.368;2023-02-02T04:13:43;99714.63;;;6.75;67.22
65553;BME280;52465;51.560;14.368;2023-02-02T04:16:10;99716.69;;;6.71;67.23
65553;BME280;52465;51.560;14.368;2023-02-02T04:18:36;99703.06;;;6.59;66.66
65553;BME280;52465;51.560;14.368;2023-02-02T04:21:04;99698.44;;;6.53;67.64
65553;BME280;52465;51.560;14.368;2023-02-02T04:23:31;99732.03;;;6.74;67.52
65553;BME280;52465;51.560;14.368;2023-02-02T04:25:58;99721.34;;;6.68;67.33
65553;BME280;52465;51.560;14.368;2023-02-02T04:28:26;99720.84;;;6.64;67.47
65553;BME280;52465;51.560;14.368;2023-02-02T04:30:53;99733.94;;;6.72;66.70
65553;BME280;52465;51.560;14.368;2023-02-02T04:33:20;99695.88;;;6.44;67.53
65553;BME280;52465;51.560;14.368;2023-02-02T04:35:46;99720.06;;;6.54;67.18
65553;BME280;52465;51.560;14.368;2023-02-02T04:38:11;99746.13;;;6.72;66.96
65553;BME280;52465;51.560;14.368;2023-02-02T04:40:38;99735.88;;;6.70;66.79
65553;BME280;52465;51.560;14.368;2023-02-02T04:43:04;99736.97;;;6.68;66.90
65553;BME280;52465;51.560;14.368;2023-02-02T04:45:29;99745.16;;;6.73;66.86
65553;BME280;52465;51.560;14.368;2023-02-02T04:47:55;99733.03;;;6.63;67.19
65553;BME280;52465;51.560;14.368;2023-02-02T04:50:23;99745.31;;;6.71;67.52
65553;BME280;52465;51.560;14.368;2023-02-02T04:52:49;99736.03;;;6.69;67.07
65553;BME280;52465;51.560;14.368;2023-02-02T04:55:15;99738.50;;;6.60;67.28
65553;BME280;52465;51.560;14.368;2023-02-02T04:57:40;99742.75;;;6.61;67.29
65553;BME280;52465;51.560;14.368;2023-02-02T05:00:06;99758.91;;;6.65;66.90
65553;BME280;52465;51.560;14.368;2023-02-02T05:02:36;99757.94;;;6.66;67.30
65553;BME280;52465;51.560;14.368;2023-02-02T05:05:01;99734.00;;;6.62;67.32
65553;BME280;52465;51.560;14.368;2023-02-02T05:07:27;99766.53;;;6.67;66.93
65553;BME280;52465;51.560;14.368;2023-02-02T05:09:55;99752.63;;;6.58;66.90
65553;BME280;52465;51.560;14.368;2023-02-02T05:12:21;99776.13;;;6.66;67.66
65553;BME280;52465;51.560;14.368;2023-02-02T05:14:46;99780.63;;;6.74;67.44
65553;BME280;52465;51.560;14.368;2023-02-02T05:17:12;99740.91;;;6.44;67.51
65553;BME280;52465;51.560;14.368;2023-02-02T05:19:38;99758.94;;;6.55;66.85
65553;BME280;52465;51.560;14.368;2023-02-02T05:22:03;99785.00;;;6.73;67.50
65553;BME280;52465;51.560;14.368;2023-02-02T05:24:29;99792.94;;;6.72;67.08
65553;BME280;52465;51.560;14.368;2023-02-02T05:26:55;99806.66;;;6.74;66.90
65553;BME280;52465;51.560;14.368;2023-02-02T05:29:25;99809.25;;;6.74;67.12
65553;BME280;52465;51.560;14.368;2023-02-02T05:34:50;99807.06;;;6.69;66.91
65553;BME280;52465;51.560;14.368;2023-02-02T05:37:15;99797.38;;;6.61;67.12
65553;BME280;52465;51.560;14.368;2023-02-02T05:39:41;99807.34;;;6.66;67.13
65553;BME280;52465;51.560;14.368;2023-02-02T05:42:06;99822.38;;;6.72;67.03
65553;BME280;52465;51.560;14.368;2023-02-02T05:44:31;99830.88;;;6.74;67.37
65553;BME280;52465;51.560;14.368;2023-02-02T05:46:57;99831.31;;;6.70;66.68
65553;BME280;52465;51.560;14.368;2023-02-02T05:49:22;99825.16;;;6.61;67.28
65553;BME280;52465;51.560;14.368;2023-02-02T05:51:51;99845.69;;;6.74;67.09
65553;BME280;52465;51.560;14.368;2023-02-02T05:54:23;99840.19;;;6.67;66.82
65553;BME280;52465;51.560;14.368;2023-02-02T05:56:51;99863.75;;;6.66;66.95
65553;BME280;52465;51.560;14.368;2023-02-02T05:59:18;99811.81;;;6.46;66.64
65553;BME280;52465;51.560;14.368;2023-02-02T06:01:46;99845.44;;;6.57;67.46
65553;BME280;52465;51.560;14.368;2023-02-02T06:04:13;99848.97;;;6.56;67.10
65553;BME280;52465;51.560;14.368;2023-02-02T06:06:39;99883.03;;;6.73;66.77
65553;BME280;52465;51.560;14.368;2023-02-02T06:09:06;99868.13;;;6.65;67.22
65553;BME280;52465;51.560;14.368;2023-02-02T06:11:32;99858.84;;;6.62;67.22
65553;BME280;52465;51.560;14.368;2023-02-02T06:13:58;99857.50;;;6.49;67.23
65553;BME280;52465;51.560;14.368;2023-02-02T06:16:23;99901.38;;;6.71;67.32
65553;BME280;52465;51.560;14.368;2023-02-02T06:18:50;99880.47;;;6.63;67.34
65553;BME280;52465;51.560;14.368;2023-02-02T06:21:16;99886.34;;;6.65;67.19
65553;BME280;52465;51.560;14.368;2023-02-02T06:23:44;99875.38;;;6.61;67.18
65553;BME280;52465;51.560;14.368;2023-02-02T06:26:16;99909.03;;;6.73;67.54
65553;BME280;52465;51.560;14.368;2023-02-02T06:28:42;99889.22;;;6.62;67.32
65553;BME280;52465;51.560;14.368;2023-02-02T06:31:10;99914.97;;;6.65;67.36
65553;BME280;52465;51.560;14.368;2023-02-02T06:33:36;99923.97;;;6.71;67.27
65553;BME280;52465;51.560;14.368;2023-02-02T06:36:04;99902.09;;;6.54;67.33
65553;BME280;52465;51.560;14.368;2023-02-02T06:38:31;99883.91;;;6.44;67.36
65553;BME280;52465;51.560;14.368;2023-02-02T06:41:00;99932.44;;;6.73;67.08
65553;BME280;52465;51.560;14.368;2023-02-02T06:43:25;99927.94;;;6.75;67.13
65553;BME280;52465;51.560;14.368;2023-02-02T06:45:52;99913.16;;;6.66;67.17
65553;BME280;52465;51.560;14.368;2023-02-02T06:48:17;99926.44;;;6.72;67.50
65553;BME280;52465;51.560;14.368;2023-02-02T06:50:43;99900.75;;;6.50;67.40
65553;BME280;52465;51.560;14.368;2023-02-02T06:53:08;99924.00;;;6.61;67.26
65553;BME280;52465;51.560;14.368;2023-02-02T06:55:34;99921.78;;;6.66;66.84
65553;BME280;52465;51.560;14.368;2023-02-02T06:58:00;99927.28;;;6.63;66.87
65553;BME280;52465;51.560;14.368;2023-02-02T07:00:27;99947.81;;;6.66;67.79
65553;BME280;52465;51.560;14.368;2023-02-02T07:02:53;99956.00;;;6.71;67.66
65553;BME280;52465;51.560;14.368;2023-02-02T07:05:19;99914.84;;;6.38;66.96
65553;BME280;52465;51.560;14.368;2023-02-02T07:07:46;99951.63;;;6.62;67.09
65553;BME280;52465;51.560;14.368;2023-02-02T07:10:11;99954.38;;;6.60;67.18
65553;BME280;52465;51.560;14.368;2023-02-02T07:12:37;99957.28;;;6.57;67.19
65553;BME280;52465;51.560;14.368;2023-02-02T07:15:03;99977.13;;;6.68;66.98
65553;BME280;52465;51.560;14.368;2023-02-02T07:17:33;99945.09;;;6.48;67.16
65553;BME280;52465;51.560;14.368;2023-02-02T07:19:59;99982.03;;;6.71;67.28
65553;BME280;52465;51.560;14.368;2023-02-02T07:22:24;99973.56;;;6.59;66.77
65553;BME280;52465;51.560;14.368;2023-02-02T07:24:50;99981.91;;;6.63;67.30
65553;BME280;52465;51.560;14.368;2023-02-02T07:27:16;99988.06;;;6.62;67.44
65553;BME280;52465;51.560;14.368;2023-02-02T07:29:41;99968.50;;;6.48;67.39
65553;BME280;52465;51.560;14.368;2023-02-02T07:32:08;100006.66;;;6.67;67.15
65553;BME280;52465;51.560;14.368;2023-02-02T07:34:37;99986.16;;;6.54;66.96
65553;BME280;52465;51.560;14.368;2023-02-02T07:37:02;100034.19;;;6.70;67.38
65553;BME280;52465;51.560;14.368;2023-02-02T07:39:28;100019.25;;;6.72;67.35
65553;BME280;52465;51.560;14.368;2023-02-02T07:41:53;100019.81;;;6.66;67.75
65553;BME280;52465;51.560;14.368;2023-02-02T07:44:19;100006.81;;;6.66;67.20
65553;BME280;52465;51.560;14.368;2023-02-02T07:46:46;100005.03;;;6.56;67.00
65553;BME280;52465;51.560;14.368;2023-02-02T07:49:15;100035.72;;;6.62;66.47
65553;BME280;52465;51.560;14.368;2023-02-02T07:51:42;100015.03;;;6.61;67.06
65553;BME280;52465;51.560;14.368;2023-02-02T07:54:09;100015.97;;;6.50;67.16
65553;BME280;52465;51.560;14.368;2023-02-02T07:56:36;100053.22;;;6.70;67.22
65553;BME280;52465;51.560;14.368;2023-02-02T07:59:02;100049.53;;;6.73;66.85
65553;BME280;52465;51.560;14.368;2023-02-02T08:01:29;100008.47;;;6.47;67.43
65553;BME280;52465;51.560;14.368;2023-02-02T08:03:57;100028.56;;;6.55;67.04
65553;BME280;52465;51.560;14.368;2023-02-02T08:06:30;100024.19;;;6.55;66.80
65553;BME280;52465;51.560;14.368;2023-02-02T08:08:59;100015.88;;;6.52;66.70
65553;BME280;52465;51.560;14.368;2023-02-02T08:11:27;100043.78;;;6.69;67.11
65553;BME280;52465;51.560;14.368;2023-02-02T08:13:55;100056.41;;;6.74;66.74
65553;BME280;52465;51.560;14.368;2023-02-02T08:16:24;100048.44;;;6.66;67.11
65553;BME280;52465;51.560;14.368;2023-02-02T08:18:50;100070.47;;;6.71;67.07
65553;BME280;52465;51.560;14.368;2023-02-02T08:21:16;100025.97;;;6.45;66.74
65553;BME280;52465;51.560;14.368;2023-02-02T08:23:42;100075.53;;;6.73;67.08
65553;BME280;52465;51.560;14.368;2023-02-02T08:26:19;100085.00;;;6.74;67.69
65553;BME280;52465;51.560;14.368;2023-02-02T08:28:51;100076.50;;;6.72;67.06
65553;BME280;52465;51.560;14.368;2023-02-02T08:31:24;100088.13;;;6.68;67.48
65553;BME280;52465;51.560;14.368;2023-02-02T08:33:50;100096.09;;;6.76;67.14
65553;BME280;52465;51.560;14.368;2023-02-02T08:36:19;100110.88;;;6.75;67.09
65553;BME280;52465;51.560;14.368;2023-02-02T08:38:45;100066.50;;;6.48;67.59
65553;BME280;52465;51.560;14.368;2023-02-02T08:41:14;100112.53;;;6.76;67.35
65553;BME280;52465;51.560;14.368;2023-02-02T08:43:40;100082.13;;;6.57;67.00
65553;BME280;52465;51.560;14.368;2023-02-02T08:46:07;100118.81;;;6.74;67.11
65553;BME280;52465;51.560;14.368;2023-02-02T08:48:33;100112.53;;;6.76;67.16
65553;BME280;52465;51.560;14.368;2023-02-02T08:50:59;100093.34;;;6.58;67.08
65553;BME280;52465;51.560;14.368;2023-02-02T08:53:27;100095.94;;;6.68;67.08
65553;BME280;52465;51.560;14.368;2023-02-02T08:55:58;100105.69;;;6.75;67.08
65553;BME280;52465;51.560;14.368;2023-02-02T08:58:24;100104.84;;;6.75;66.88
65553;BME280;52465;51.560;14.368;2023-02-02T09:00:50;100123.59;;;6.78;66.96
65553;BME280;52465;51.560;14.368;2023-02-02T09:03:15;100097.19;;;6.63;66.84
65553;BME280;52465;51.560;14.368;2023-02-02T09:05:41;100088.66;;;6.61;66.69
65553;BME280;52465;51.560;14.368;2023-02-02T09:08:06;100116.34;;;6.72;67.47
65553;BME280;52465;51.560;14.368;2023-02-02T09:10:34;100144.69;;;6.75;66.89
65553;BME280;52465;51.560;14.368;2023-02-02T09:13:01;100124.53;;;6.68;67.07
65553;BME280;52465;51.560;14.368;2023-02-02T09:15:28;100141.13;;;6.76;67.08
65553;BME280;52465;51.560;14.368;2023-02-02T09:17:53;100100.56;;;6.54;67.14
65553;BME280;52465;51.560;14.368;2023-02-02T09:20:19;100122.91;;;6.67;67.63
65553;BME280;52465;51.560;14.368;2023-02-02T09:22:45;100117.84;;;6.65;67.66
65553;BME280;52465;51.560;14.368;2023-02-02T09:25:10;100141.81;;;6.78;67.15
65553;BME280;52465;51.560;14.368;2023-02-02T09:27:36;100132.78;;;6.73;67.14
65553;BME280;52465;51.560;14.368;2023-02-02T09:30:03;100132.50;;;6.76;67.21
65553;BME280;52465;51.560;14.368;2023-02-02T09:32:29;100137.56;;;6.77;67.15
65553;BME280;52465;51.560;14.368;2023-02-02T09:34:54;100049.72;;;6.12;66.70
65553;BME280;52465;51.560;14.368;2023-02-02T09:37:20;100115.22;;;6.55;67.61
65553;BME280;52465;51.560;14.368;2023-02-02T09:39:46;100151.69;;;6.75;67.36
65553;BME280;52465;51.560;14.368;2023-02-02T09:53:41;100182.50;;;6.79;67.28
65553;BME280;52465;51.560;14.368;2023-02-02T09:56:11;100176.06;;;6.74;67.44
65553;BME280;52465;51.560;14.368;2023-02-02T09:59:07;100160.31;;;6.75;67.54
65553;BME280;52465;51.560;14.368;2023-02-02T10:01:42;100157.53;;;6.67;66.68
65553;BME280;52465;51.560;14.368;2023-02-02T10:04:14;100182.38;;;6.81;67.01
65553;BME280;52465;51.560;14.368;2023-02-02T10:06:45;100179.75;;;6.81;67.56
65553;BME280;52465;51.560;14.368;2023-02-02T10:09:38;100200.59;;;6.81;67.17
65553;BME280;52465;51.560;14.368;2023-02-02T10:12:19;100200.72;;;6.79;67.26
65553;BME280;52465;51.560;14.368;2023-02-02T10:17:32;100184.00;;;6.82;66.86
65553;BME280;52465;51.560;14.368;2023-02-02T10:20:07;100197.00;;;6.82;66.88
65553;BME280;52465;51.560;14.368;2023-02-02T10:22:37;100172.03;;;6.60;66.56
65553;BME280;52465;51.560;14.368;2023-02-02T10:25:03;100197.41;;;6.77;67.67
65553;BME280;52465;51.560;14.368;2023-02-02T10:30:43;100207.44;;;6.82;67.05
65553;BME280;52465;51.560;14.368;2023-02-02T10:33:19;100210.84;;;6.82;67.62
65553;BME280;52465;51.560;14.368;2023-02-02T10:36:02;100211.66;;;6.83;66.99
65553;BME280;52465;51.560;14.368;2023-02-02T10:41:16;100166.00;;;6.50;67.23
65553;BME280;52465;51.560;14.368;2023-02-02T10:44:06;100220.28;;;6.83;67.02
65553;BME280;52465;51.560;14.368;2023-02-02T10:46:39;100209.88;;;6.83;67.35
65553;BME280;52465;51.560;14.368;2023-02-02T10:49:25;100204.16;;;6.80;67.56
65553;BME280;52465;51.560;14.368;2023-02-02T10:51:56;100201.97;;;6.85;67.81
65553;BME280;52465;51.560;14.368;2023-02-02T10:54:43;100202.09;;;6.83;67.33
65553;BME280;52465;51.560;14.368;2023-02-02T10:57:17;100184.13;;;6.71;67.22
65553;BME280;52465;51.560;14.368;2023-02-02T11:02:21;100200.31;;;6.84;67.50
65553;BME280;52465;51.560;14.368;2023-02-02T11:04:46;100179.06;;;6.69;67.00
65553;BME280;52465;51.560;14.368;2023-02-02T11:07:30;100177.41;;;6.68;67.45
65553;BME280;52465;51.560;14.368;2023-02-02T11:09:59;100206.31;;;6.84;67.05
65553;BME280;52465;51.560;14.368;2023-02-02T11:12:31;100188.25;;;6.83;67.07
65553;BME280;52465;51.560;14.368;2023-02-02T11:15:06;100204.56;;;6.85;66.91
65553;BME280;52465;51.560;14.368;2023-02-02T11:17:33;100178.78;;;6.72;66.99
65553;BME280;52465;51.560;14.368;2023-02-02T11:20:00;100210.31;;;6.88;67.36
65553;BME280;52465;51.560;14.368;2023-02-02T11:22:30;100202.50;;;6.88;66.89
65553;BME280;52465;51.560;14.368;2023-02-02T11:25:01;100173.97;;;6.68;67.40
65553;BME280;52465;51.560;14.368;2023-02-02T11:27:37;100203.88;;;6.83;66.92
65553;BME280;52465;51.560;14.368;2023-02-02T11:30:30;100223.19;;;6.90;67.44
65553;BME280;52465;51.560;14.368;2023-02-02T11:32:58;100211.94;;;6.80;66.69
65553;BME280;52465;51.560;14.368;2023-02-02T11:35:25;100211.94;;;6.80;67.31
65553;BME280;52465;51.560;14.368;2023-02-02T11:40:39;100162.72;;;6.48;67.22
65553;BME280;52465;51.560;14.368;2023-02-02T11:43:47;100233.47;;;6.92;67.22
65553;BME280;52465;51.560;14.368;2023-02-02T11:46:18;100237.72;;;6.93;67.14
65553;BME280;52465;51.560;14.368;2023-02-02T11:48:58;100237.72;;;6.93;67.49
65553;BME280;52465;51.560;14.368;2023-02-02T11:51:26;100228.38;;;6.80;67.18
65553;BME280;52465;51.560;14.368;2023-02-02T11:54:15;100243.88;;;6.92;67.04
65553;BME280;52465;51.560;14.368;2023-02-02T11:56:47;100243.59;;;6.95;67.28
65553;BME280;52465;51.560;14.368;2023-02-02T11:59:42;100241.97;;;6.94;67.02
65553;BME280;52465;51.560;14.368;2023-02-02T12:04:50;100222.22;;;6.81;67.06
65553;BME280;52465;51.560;14.368;2023-02-02T12:07:32;100224.13;;;6.79;67.10
65553;BME280;52465;51.560;14.368;2023-02-02T12:10:11;100235.91;;;6.83;67.34
65553;BME280;52465;51.560;14.368;2023-02-02T12:15:24;100238.78;;;6.90;66.78
65553;BME280;52465;51.560;14.368;2023-02-02T12:18:01;100240.03;;;6.86;67.37
65553;BME280;52465;51.560;14.368;2023-02-02T12:21:13;100255.38;;;6.89;67.05
65553;BME280;52465;51.560;14.368;2023-02-02T12:24:21;100269.63;;;6.95;66.59
65553;BME280;52465;51.560;14.368;2023-02-02T12:26:59;100251.53;;;6.83;67.17
65553;BME280;52465;51.560;14.368;2023-02-02T12:32:59;100261.00;;;6.94;67.33
65553;BME280;52465;51.560;14.368;2023-02-02T12:38:14;100266.22;;;6.94;66.94
65553;BME280;52465;51.560;14.368;2023-02-02T12:43:21;100255.66;;;6.86;66.99
65553;BME280;52465;51.560;14.368;2023-02-02T12:48:57;100294.97;;;6.93;67.23
65553;BME280;52465;51.560;14.368;2023-02-02T12:51:54;100302.50;;;6.96;67.51
65553;BME280;52465;51.560;14.368;2023-02-02T12:54:45;100316.38;;;6.96;67.44
65553;BME280;52465;51.560;14.368;2023-02-02T12:57:44;100311.97;;;6.97;67.46
65553;BME280;52465;51.560;14.368;2023-02-02T13:00:21;100295.53;;;6.96;67.56
65553;BME280;52465;51.560;14.368;2023-02-02T13:03:04;100298.97;;;6.97;67.35
65553;BME280;52465;51.560;14.368;2023-02-02T13:05:58;100303.34;;;6.96;66.52
65553;BME280;52465;51.560;14.368;2023-02-02T13:08:30;100303.06;;;6.99;67.39
65553;BME280;52465;51.560;14.368;2023-02-02T13:11:05;100305.69;;;6.99;66.51
65553;BME280;52465;51.560;14.368;2023-02-02T13:13:58;100303.91;;;7.00;67.11
65553;BME280;52465;51.560;14.368;2023-02-02T13:16:25;100281.50;;;6.78;67.11
65553;BME280;52465;51.560;14.368;2023-02-02T13:18:57;100334.06;;;7.02;67.07
65553;BME280;52465;51.560;14.368;2023-02-02T13:21:24;100325.53;;;7.00;67.50
65553;BME280;52465;51.560;14.368;2023-02-02T13:23:56;100336.66;;;7.02;67.47
65553;BME280;52465;51.560;14.368;2023-02-02T13:26:25;100322.94;;;7.00;67.00
65553;BME280;52465;51.560;14.368;2023-02-02T13:29:06;100315.00;;;7.02;67.31
65553;BME280;52465;51.560;14.368;2023-02-02T13:31:48;100335.69;;;7.03;67.57
65553;BME280;52465;51.560;14.368;2023-02-02T13:36:51;100315.13;;;6.91;66.86
65553;BME280;52465;51.560;14.368;2023-02-02T13:39:28;100342.53;;;7.04;67.55
65553;BME280;52465;51.560;14.368;2023-02-02T13:42:31;100340.91;;;7.03;67.03
65553;BME280;52465;51.560;14.368;2023-02-02T13:45:15;100343.50;;;7.03;66.84
65553;BME280;52465;51.560;14.368;2023-02-02T13:47:53;100331.28;;;6.94;66.85
65553;BME280;52465;51.560;14.368;2023-02-02T13:50:27;100307.94;;;6.83;67.00
65553;BME280;52465;51.560;14.368;2023-02-02T13:53:20;100354.47;;;7.07;67.15
65553;BME280;52465;51.560;14.368;2023-02-02T13:58:32;100366.53;;;7.08;66.49
65553;BME280;52465;51.560;14.368;2023-02-02T14:01:05;100375.19;;;7.08;66.92
65553;BME280;52465;51.560;14.368;2023-02-02T14:08:36;100375.03;;;7.10;66.76
65553;BME280;52465;51.560;14.368;2023-02-02T14:11:07;100380.09;;;7.11;66.89
65553;BME280;52465;51.560;14.368;2023-02-02T14:13:41;100379.03;;;7.14;66.97
65553;BME280;52465;51.560;14.368;2023-02-02T14:19:00;100401.22;;;7.08;66.66
65553;BME280;52465;51.560;14.368;2023-02-02T14:24:01;100407.78;;;7.12;66.95
65553;BME280;52465;51.560;14.368;2023-02-02T14:34:42;100481.63;;;7.11;66.96